sensor_id;sensor_type;location;lat;lon;timestamp;pressure;altitude;pressure_sealevel;temperature
63689;BMP280;54895;40.928;14.480;2023-04-29T00:01:27;101489.84;;;16.77
63689;BMP280;54895;40.928;14.480;2023-04-29T00:03:53;101469.06;;;16.77
63689;BMP280;54895;40.928;14.480;2023-04-29T00:06:20;101481.44;;;16.88
63689;BMP280;54895;40.928;14.480;2023-04-29T00:08:46;101466.03;;;16.88
63689;BMP280;54895;40.928;14.480;2023-04-29T00:11:12;101470.69;;;16.88
63689;BMP280;54895;40.928;14.480;2023-04-29T00:13:38;101454.00;;;16.67
63689;BMP280;54895;40.928;14.480;2023-04-29T00:16:06;101471.53;;;16.60
63689;BMP280;54895;40.928;14.480;2023-04-29T00:18:32;101455.78;;;16.57
63689;BMP280;54895;40.928;14.480;2023-04-29T00:20:58;101442.00;;;16.68
63689;BMP280;54895;40.928;14.480;2023-04-29T00:23:25;101403.25;;;16.41
63689;BMP280;54895;40.928;14.480;2023-04-29T00:25:51;101447.19;;;16.66
63689;BMP280;54895;40.928;14.480;2023-04-29T00:37:11;101451.34;;;17.12
63689;BMP280;54895;40.928;14.480;2023-04-29T00:39:38;101446.09;;;16.69
63689;BMP280;54895;40.928;14.480;2023-04-29T00:42:04;101430.38;;;16.88
63689;BMP280;54895;40.928;14.480;2023-04-29T00:44:30;101442.91;;;16.78
63689;BMP280;54895;40.928;14.480;2023-04-29T00:46:57;101455.78;;;16.94
63689;BMP280;54895;40.928;14.480;2023-04-29T00:49:24;101452.94;;;16.85
63689;BMP280;54895;40.928;14.480;2023-04-29T00:51:50;101429.97;;;16.54
63689;BMP280;54895;40.928;14.480;2023-04-29T00:54:17;101455.78;;;16.57
63689;BMP280;54895;40.928;14.480;2023-04-29T00:56:44;101449.63;;;16.49
63689;BMP280;54895;40.928;14.480;2023-04-29T00:59:11;101454.84;;;16.54
63689;BMP280;54895;40.928;14.480;2023-04-29T01:01:40;101462.59;;;16.58
63689;BMP280;54895;40.928;14.480;2023-04-29T01:04:06;101460.19;;;16.32
63689;BMP280;54895;40.928;14.480;2023-04-29T01:06:53;101463.34;;;16.73
63689;BMP280;54895;40.928;14.480;2023-04-29T01:14:54;101454.53;;;16.80
63689;BMP280;54895;40.928;14.480;2023-04-29T01:17:24;101445.41;;;16.91
63689;BMP280;54895;40.928;14.480;2023-04-29T01:19:55;101455.81;;;17.02
63689;BMP280;54895;40.928;14.480;2023-04-29T01:22:22;101447.75;;;17.02
63689;BMP280;54895;40.928;14.480;2023-04-29T01:24:49;101457.63;;;17.07
63689;BMP280;54895;40.928;14.480;2023-04-29T01:27:29;101455.06;;;16.71
63689;BMP280;54895;40.928;14.480;2023-04-29T01:30:11;101464.72;;;16.74
63689;BMP280;54895;40.928;14.480;2023-04-29T01:38:25;101447.06;;;15.78
63689;BMP280;54895;40.928;14.480;2023-04-29T01:43:42;101470.34;;;16.26
63689;BMP280;54895;40.928;14.480;2023-04-29T01:46:18;101441.78;;;15.65
63689;BMP280;54895;40.928;14.480;2023-04-29T01:48:45;101440.41;;;15.72
63689;BMP280;54895;40.928;14.480;2023-04-29T01:51:13;101457.31;;;15.95
63689;BMP280;54895;40.928;14.480;2023-04-29T01:53:40;101468.41;;;15.91
63689;BMP280;54895;40.928;14.480;2023-04-29T01:56:07;101450.31;;;16.27
63689;BMP280;54895;40.928;14.480;2023-04-29T01:58:57;101469.34;;;16.44
63689;BMP280;54895;40.928;14.480;2023-04-29T02:01:53;101475.69;;;16.19
63689;BMP280;54895;40.928;14.480;2023-04-29T02:04:22;101467.03;;;16.05
63689;BMP280;54895;40.928;14.480;2023-04-29T02:06:49;101469.78;;;16.13
63689;BMP280;54895;40.928;14.480;2023-04-29T02:09:18;101479.66;;;16.25
63689;BMP280;54895;40.928;14.480;2023-04-29T02:11:50;101468.47;;;16.42
63689;BMP280;54895;40.928;14.480;2023-04-29T02:14:17;101448.53;;;16.30
63689;BMP280;54895;40.928;14.480;2023-04-29T02:16:44;101441.66;;;16.14
63689;BMP280;54895;40.928;14.480;2023-04-29T02:19:11;101462.50;;;16.28
63689;BMP280;54895;40.928;14.480;2023-04-29T02:21:38;101454.16;;;16.04
63689;BMP280;54895;40.928;14.480;2023-04-29T02:24:05;101460.13;;;16.17
63689;BMP280;54895;40.928;14.480;2023-04-29T02:26:32;101457.81;;;16.21
63689;BMP280;54895;40.928;14.480;2023-04-29T02:28:59;101446.34;;;16.21
63689;BMP280;54895;40.928;14.480;2023-04-29T02:31:26;101461.25;;;15.94
63689;BMP280;54895;40.928;14.480;2023-04-29T02:33:54;101454.06;;;15.81
63689;BMP280;54895;40.928;14.480;2023-04-29T02:36:21;101446.84;;;15.76
63689;BMP280;54895;40.928;14.480;2023-04-29T02:38:50;101448.31;;;15.77
63689;BMP280;54895;40.928;14.480;2023-04-29T02:41:16;101449.53;;;15.76
63689;BMP280;54895;40.928;14.480;2023-04-29T02:43:43;101438.31;;;15.85
63689;BMP280;54895;40.928;14.480;2023-04-29T02:46:10;101440.41;;;16.07
63689;BMP280;54895;40.928;14.480;2023-04-29T02:48:36;101433.22;;;16.02
63689;BMP280;54895;40.928;14.480;2023-04-29T02:51:03;101456.69;;;16.02
63689;BMP280;54895;40.928;14.480;2023-04-29T02:53:29;101431.63;;;15.71
63689;BMP280;54895;40.928;14.480;2023-04-29T02:55:56;101444.81;;;15.62
63689;BMP280;54895;40.928;14.480;2023-04-29T02:58:22;101412.38;;;15.52
63689;BMP280;54895;40.928;14.480;2023-04-29T03:00:49;101448.78;;;15.68
63689;BMP280;54895;40.928;14.480;2023-04-29T03:03:16;101450.09;;;15.82
63689;BMP280;54895;40.928;14.480;2023-04-29T03:05:42;101436.63;;;15.67
63689;BMP280;54895;40.928;14.480;2023-04-29T03:08:09;101441.78;;;15.65
63689;BMP280;54895;40.928;14.480;2023-04-29T03:10:36;101434.56;;;15.88
63689;BMP280;54895;40.928;14.480;2023-04-29T03:13:02;101432.97;;;15.85
63689;BMP280;54895;40.928;14.480;2023-04-29T03:15:32;101431.81;;;15.45
63689;BMP280;54895;40.928;14.480;2023-04-29T03:17:59;101427.00;;;15.44
63689;BMP280;54895;40.928;14.480;2023-04-29T03:20:27;101406.88;;;15.09
63689;BMP280;54895;40.928;14.480;2023-04-29T03:22:54;101419.97;;;14.92
63689;BMP280;54895;40.928;14.480;2023-04-29T03:25:21;101409.38;;;14.87
63689;BMP280;54895;40.928;14.480;2023-04-29T03:27:48;101419.50;;;15.01
63689;BMP280;54895;40.928;14.480;2023-04-29T03:30:15;101417.88;;;15.19
63689;BMP280;54895;40.928;14.480;2023-04-29T03:32:48;101420.75;;;15.21
63689;BMP280;54895;40.928;14.480;2023-04-29T03:35:14;101420.78;;;15.28
63689;BMP280;54895;40.928;14.480;2023-04-29T03:38:00;101387.75;;;15.33
63689;BMP280;54895;40.928;14.480;2023-04-29T03:40:30;101431.06;;;15.17
63689;BMP280;54895;40.928;14.480;2023-04-29T03:42:56;101433.59;;;15.22
63689;BMP280;54895;40.928;14.480;2023-04-29T03:45:22;101429.56;;;15.08
63689;BMP280;54895;40.928;14.480;2023-04-29T03:47:49;101422.00;;;14.99
63689;BMP280;54895;40.928;14.480;2023-04-29T03:50:15;101427.13;;;15.10
63689;BMP280;54895;40.928;14.480;2023-04-29T03:52:42;101431.97;;;15.19
63689;BMP280;54895;40.928;14.480;2023-04-29T03:55:11;101412.25;;;15.09
63689;BMP280;54895;40.928;14.480;2023-04-29T03:57:39;101394.41;;;14.91
63689;BMP280;54895;40.928;14.480;2023-04-29T04:00:06;101392.78;;;14.88
63689;BMP280;54895;40.928;14.480;2023-04-29T04:02:40;101418.03;;;14.93
63689;BMP280;54895;40.928;14.480;2023-04-29T04:05:08;101421.41;;;15.14
63689;BMP280;54895;40.928;14.480;2023-04-29T04:07:36;101417.16;;;15.18
63689;BMP280;54895;40.928;14.480;2023-04-29T04:10:21;101412.56;;;15.06
63689;BMP280;54895;40.928;14.480;2023-04-29T04:12:47;101423.94;;;15.19
63689;BMP280;54895;40.928;14.480;2023-04-29T04:15:14;101426.16;;;15.56
63689;BMP280;54895;40.928;14.480;2023-04-29T04:17:42;101417.16;;;15.74
63689;BMP280;54895;40.928;14.480;2023-04-29T04:20:09;101405.38;;;15.77
63689;BMP280;54895;40.928;14.480;2023-04-29T04:22:36;101399.75;;;15.32
63689;BMP280;54895;40.928;14.480;2023-04-29T04:25:19;101437.72;;;15.44
63689;BMP280;54895;40.928;14.480;2023-04-29T04:27:46;101434.63;;;15.40
63689;BMP280;54895;40.928;14.480;2023-04-29T04:30:23;101435.34;;;15.33
63689;BMP280;54895;40.928;14.480;2023-04-29T04:32:50;101433.84;;;15.04
63689;BMP280;54895;40.928;14.480;2023-04-29T04:35:16;101435.03;;;15.16
63689;BMP280;54895;40.928;14.480;2023-04-29T04:37:42;101422.78;;;15.07
63689;BMP280;54895;40.928;14.480;2023-04-29T04:40:10;101435.06;;;15.23
63689;BMP280;54895;40.928;14.480;2023-04-29T04:42:50;101429.81;;;15.38
63689;BMP280;54895;40.928;14.480;2023-04-29T04:45:18;101430.88;;;15.63
63689;BMP280;54895;40.928;14.480;2023-04-29T04:47:49;101428.38;;;16.08
63689;BMP280;54895;40.928;14.480;2023-04-29T04:50:20;101435.97;;;16.17
63689;BMP280;54895;40.928;14.480;2023-04-29T04:52:48;101412.34;;;16.23
63689;BMP280;54895;40.928;14.480;2023-04-29T04:55:35;101417.03;;;16.45
63689;BMP280;54895;40.928;14.480;2023-04-29T04:58:02;101436.81;;;16.62
63689;BMP280;54895;40.928;14.480;2023-04-29T05:00:28;101411.75;;;16.82
63689;BMP280;54895;40.928;14.480;2023-04-29T05:02:55;101441.84;;;17.03
63689;BMP280;54895;40.928;14.480;2023-04-29T05:05:21;101453.25;;;17.56
63689;BMP280;54895;40.928;14.480;2023-04-29T05:07:48;101442.16;;;17.37
63689;BMP280;54895;40.928;14.480;2023-04-29T05:10:15;101446.06;;;17.59
63689;BMP280;54895;40.928;14.480;2023-04-29T05:12:47;101440.41;;;17.87
63689;BMP280;54895;40.928;14.480;2023-04-29T05:15:13;101448.44;;;18.02
63689;BMP280;54895;40.928;14.480;2023-04-29T05:17:43;101447.75;;;17.94
63689;BMP280;54895;40.928;14.480;2023-04-29T05:20:10;101438.13;;;17.76
63689;BMP280;54895;40.928;14.480;2023-04-29T05:22:37;101415.50;;;17.71
63689;BMP280;54895;40.928;14.480;2023-04-29T05:25:03;101434.03;;;18.07
63689;BMP280;54895;40.928;14.480;2023-04-29T05:27:33;101443.50;;;17.76
63689;BMP280;54895;40.928;14.480;2023-04-29T05:30:00;101428.38;;;17.88
63689;BMP280;54895;40.928;14.480;2023-04-29T05:32:33;101431.06;;;17.88
63689;BMP280;54895;40.928;14.480;2023-04-29T05:35:01;101409.34;;;17.86
63689;BMP280;54895;40.928;14.480;2023-04-29T05:37:32;101435.59;;;17.78
63689;BMP280;54895;40.928;14.480;2023-04-29T05:40:14;101446.34;;;17.85
63689;BMP280;54895;40.928;14.480;2023-04-29T05:42:41;101445.41;;;17.98
63689;BMP280;54895;40.928;14.480;2023-04-29T05:45:08;101424.44;;;17.89
63689;BMP280;54895;40.928;14.480;2023-04-29T05:47:35;101443.41;;;17.98
63689;BMP280;54895;40.928;14.480;2023-04-29T05:50:01;101438.31;;;18.10
63689;BMP280;54895;40.928;14.480;2023-04-29T05:52:28;101433.03;;;18.27
63689;BMP280;54895;40.928;14.480;2023-04-29T05:54:54;101411.03;;;17.74
63689;BMP280;54895;40.928;14.480;2023-04-29T05:57:21;101441.84;;;18.20
63689;BMP280;54895;40.928;14.480;2023-04-29T05:59:48;101425.88;;;18.54
63689;BMP280;54895;40.928;14.480;2023-04-29T06:02:14;101449.28;;;19.09
63689;BMP280;54895;40.928;14.480;2023-04-29T06:04:41;101448.97;;;19.39
63689;BMP280;54895;40.928;14.480;2023-04-29T06:07:27;101449.47;;;19.45
63689;BMP280;54895;40.928;14.480;2023-04-29T06:10:03;101446.38;;;19.49
63689;BMP280;54895;40.928;14.480;2023-04-29T06:12:31;101449.28;;;19.77
63689;BMP280;54895;40.928;14.480;2023-04-29T06:14:58;101454.75;;;20.13
63689;BMP280;54895;40.928;14.480;2023-04-29T06:17:24;101442.06;;;20.42
63689;BMP280;54895;40.928;14.480;2023-04-29T06:19:51;101429.16;;;20.60
63689;BMP280;54895;40.928;14.480;2023-04-29T06:22:17;101446.47;;;21.02
63689;BMP280;54895;40.928;14.480;2023-04-29T06:24:48;101437.50;;;21.09
63689;BMP280;54895;40.928;14.480;2023-04-29T06:27:21;101406.88;;;20.78
63689;BMP280;54895;40.928;14.480;2023-04-29T06:33:05;101456.44;;;21.47
63689;BMP280;54895;40.928;14.480;2023-04-29T06:35:38;101454.84;;;21.82
63689;BMP280;54895;40.928;14.480;2023-04-29T06:38:07;101451.97;;;21.89
63689;BMP280;54895;40.928;14.480;2023-04-29T06:40:56;101432.59;;;22.14
63689;BMP280;54895;40.928;14.480;2023-04-29T06:43:29;101436.59;;;22.13
63689;BMP280;54895;40.928;14.480;2023-04-29T06:46:14;101456.91;;;22.32
63689;BMP280;54895;40.928;14.480;2023-04-29T06:49:03;101439.47;;;22.35
63689;BMP280;54895;40.928;14.480;2023-04-29T06:51:31;101445.97;;;22.51
63689;BMP280;54895;40.928;14.480;2023-04-29T06:53:59;101443.53;;;22.55
63689;BMP280;54895;40.928;14.480;2023-04-29T06:56:25;101428.78;;;22.79
63689;BMP280;54895;40.928;14.480;2023-04-29T06:58:51;101460.28;;;23.05
63689;BMP280;54895;40.928;14.480;2023-04-29T07:01:18;101440.78;;;23.18
63689;BMP280;54895;40.928;14.480;2023-04-29T07:03:44;101428.88;;;23.02
63689;BMP280;54895;40.928;14.480;2023-04-29T07:06:11;101456.09;;;23.14
63689;BMP280;54895;40.928;14.480;2023-04-29T07:08:37;101446.69;;;22.73
63689;BMP280;54895;40.928;14.480;2023-04-29T07:11:04;101443.94;;;22.94
63689;BMP280;54895;40.928;14.480;2023-04-29T07:13:30;101444.78;;;23.29
63689;BMP280;54895;40.928;14.480;2023-04-29T07:15:57;101431.97;;;23.52
63689;BMP280;54895;40.928;14.480;2023-04-29T07:18:23;101419.63;;;23.72
63689;BMP280;54895;40.928;14.480;2023-04-29T07:20:49;101444.91;;;23.86
63689;BMP280;54895;40.928;14.480;2023-04-29T07:23:17;101447.28;;;24.03
63689;BMP280;54895;40.928;14.480;2023-04-29T07:25:45;101430.59;;;23.51
63689;BMP280;54895;40.928;14.480;2023-04-29T07:28:11;101424.88;;;23.03
63689;BMP280;54895;40.928;14.480;2023-04-29T07:30:37;101429.66;;;23.14
63689;BMP280;54895;40.928;14.480;2023-04-29T07:33:04;101440.13;;;23.52
63689;BMP280;54895;40.928;14.480;2023-04-29T07:35:32;101438.16;;;23.75
63689;BMP280;54895;40.928;14.480;2023-04-29T07:37:59;101439.66;;;24.36
63689;BMP280;54895;40.928;14.480;2023-04-29T07:40:25;101433.28;;;23.97
63689;BMP280;54895;40.928;14.480;2023-04-29T07:42:55;101444.88;;;23.19
63689;BMP280;54895;40.928;14.480;2023-04-29T07:45:22;101432.41;;;22.93
63689;BMP280;54895;40.928;14.480;2023-04-29T07:47:48;101421.28;;;22.89
63689;BMP280;54895;40.928;14.480;2023-04-29T07:50:15;101447.25;;;22.92
63689;BMP280;54895;40.928;14.480;2023-04-29T07:52:43;101393.44;;;23.21
63689;BMP280;54895;40.928;14.480;2023-04-29T07:55:09;101441.34;;;23.83
63689;BMP280;54895;40.928;14.480;2023-04-29T07:57:36;101435.66;;;23.57
63689;BMP280;54895;40.928;14.480;2023-04-29T08:00:03;101440.34;;;23.45
63689;BMP280;54895;40.928;14.480;2023-04-29T08:02:44;101439.34;;;23.61
63689;BMP280;54895;40.928;14.480;2023-04-29T08:05:15;101453.19;;;23.00
63689;BMP280;54895;40.928;14.480;2023-04-29T08:07:57;101442.63;;;22.32
63689;BMP280;54895;40.928;14.480;2023-04-29T08:10:31;101446.41;;;22.69
63689;BMP280;54895;40.928;14.480;2023-04-29T08:13:00;101459.06;;;23.18
63689;BMP280;54895;40.928;14.480;2023-04-29T08:15:32;101433.88;;;23.06
63689;BMP280;54895;40.928;14.480;2023-04-29T08:17:59;101446.63;;;23.59
63689;BMP280;54895;40.928;14.480;2023-04-29T08:20:26;101453.72;;;23.52
63689;BMP280;54895;40.928;14.480;2023-04-29T08:22:53;101454.81;;;24.16
63689;BMP280;54895;40.928;14.480;2023-04-29T08:25:20;101458.13;;;24.26
63689;BMP280;54895;40.928;14.480;2023-04-29T08:27:46;101468.88;;;24.35
63689;BMP280;54895;40.928;14.480;2023-04-29T08:34:31;101450.09;;;24.76
63689;BMP280;54895;40.928;14.480;2023-04-29T08:37:04;101440.44;;;24.98
63689;BMP280;54895;40.928;14.480;2023-04-29T08:39:33;101441.22;;;25.25
63689;BMP280;54895;40.928;14.480;2023-04-29T08:42:07;101434.34;;;25.24
63689;BMP280;54895;40.928;14.480;2023-04-29T08:44:35;101433.84;;;25.66
63689;BMP280;54895;40.928;14.480;2023-04-29T08:47:02;101444.16;;;25.94
63689;BMP280;54895;40.928;14.480;2023-04-29T08:49:30;101442.06;;;24.78
63689;BMP280;54895;40.928;14.480;2023-04-29T08:51:59;101454.31;;;23.62
63689;BMP280;54895;40.928;14.480;2023-04-29T08:54:26;101436.38;;;24.26
63689;BMP280;54895;40.928;14.480;2023-04-29T08:56:54;101447.75;;;23.88
63689;BMP280;54895;40.928;14.480;2023-04-29T08:59:24;101434.59;;;23.73
63689;BMP280;54895;40.928;14.480;2023-04-29T09:01:52;101444.06;;;24.66
63689;BMP280;54895;40.928;14.480;2023-04-29T09:06:58;101436.47;;;24.51
63689;BMP280;54895;40.928;14.480;2023-04-29T09:09:25;101426.13;;;24.61
63689;BMP280;54895;40.928;14.480;2023-04-29T09:11:53;101407.22;;;25.39
63689;BMP280;54895;40.928;14.480;2023-04-29T09:14:22;101426.13;;;25.10
63689;BMP280;54895;40.928;14.480;2023-04-29T09:16:50;101427.59;;;25.77
63689;BMP280;54895;40.928;14.480;2023-04-29T09:19:30;101416.91;;;26.23
63689;BMP280;54895;40.928;14.480;2023-04-29T09:21:58;101414.06;;;26.48
63689;BMP280;54895;40.928;14.480;2023-04-29T09:24:27;101413.53;;;26.51
63689;BMP280;54895;40.928;14.480;2023-04-29T09:26:58;101411.16;;;26.17
63689;BMP280;54895;40.928;14.480;2023-04-29T09:33:13;101407.56;;;25.07
63689;BMP280;54895;40.928;14.480;2023-04-29T09:35:41;101397.56;;;24.37
63689;BMP280;54895;40.928;14.480;2023-04-29T09:38:11;101373.44;;;24.31
63689;BMP280;54895;40.928;14.480;2023-04-29T09:40:39;101405.63;;;24.60
63689;BMP280;54895;40.928;14.480;2023-04-29T09:43:14;101391.53;;;24.75
63689;BMP280;54895;40.928;14.480;2023-04-29T09:45:45;101398.09;;;25.73
63689;BMP280;54895;40.928;14.480;2023-04-29T09:48:13;101397.81;;;26.23
63689;BMP280;54895;40.928;14.480;2023-04-29T09:50:43;101398.38;;;25.52
63689;BMP280;54895;40.928;14.480;2023-04-29T09:53:10;101405.78;;;25.77
63689;BMP280;54895;40.928;14.480;2023-04-29T09:59:53;101397.97;;;25.44
63689;BMP280;54895;40.928;14.480;2023-04-29T10:02:45;101387.84;;;25.33
63689;BMP280;54895;40.928;14.480;2023-04-29T10:05:18;101400.34;;;25.11
63689;BMP280;54895;40.928;14.480;2023-04-29T10:07:47;101387.88;;;25.60
63689;BMP280;54895;40.928;14.480;2023-04-29T10:10:21;101400.88;;;26.58
63689;BMP280;54895;40.928;14.480;2023-04-29T10:12:52;101396.13;;;26.74
63689;BMP280;54895;40.928;14.480;2023-04-29T10:15:35;101391.75;;;26.38
63689;BMP280;54895;40.928;14.480;2023-04-29T10:18:29;101392.63;;;26.87
63689;BMP280;54895;40.928;14.480;2023-04-29T10:21:05;101390.28;;;26.08
63689;BMP280;54895;40.928;14.480;2023-04-29T10:23:35;101386.09;;;26.34
63689;BMP280;54895;40.928;14.480;2023-04-29T10:26:06;101380.97;;;26.13
63689;BMP280;54895;40.928;14.480;2023-04-29T10:28:36;101392.63;;;27.02
63689;BMP280;54895;40.928;14.480;2023-04-29T10:31:14;101394.41;;;26.96
63689;BMP280;54895;40.928;14.480;2023-04-29T10:33:45;101391.44;;;27.21
63689;BMP280;54895;40.928;14.480;2023-04-29T10:36:14;101407.25;;;26.49
63689;BMP280;54895;40.928;14.480;2023-04-29T10:38:47;101389.75;;;26.54
63689;BMP280;54895;40.928;14.480;2023-04-29T10:41:44;101403.69;;;26.18
63689;BMP280;54895;40.928;14.480;2023-04-29T10:44:26;101403.63;;;26.02
63689;BMP280;54895;40.928;14.480;2023-04-29T10:47:18;101405.59;;;26.42
63689;BMP280;54895;40.928;14.480;2023-04-29T10:50:01;101410.59;;;26.61
63689;BMP280;54895;40.928;14.480;2023-04-29T10:52:55;101411.53;;;26.38
63689;BMP280;54895;40.928;14.480;2023-04-29T10:55:30;101410.97;;;27.31
63689;BMP280;54895;40.928;14.480;2023-04-29T10:57:59;101391.31;;;27.49
63689;BMP280;54895;40.928;14.480;2023-04-29T11:00:33;101409.84;;;27.36
63689;BMP280;54895;40.928;14.480;2023-04-29T11:03:06;101384.94;;;26.68
63689;BMP280;54895;40.928;14.480;2023-04-29T11:05:35;101386.75;;;27.08
63689;BMP280;54895;40.928;14.480;2023-04-29T11:08:22;101393.19;;;26.99
63689;BMP280;54895;40.928;14.480;2023-04-29T11:11:06;101385.56;;;27.74
63689;BMP280;54895;40.928;14.480;2023-04-29T11:13:39;101377.88;;;27.07
63689;BMP280;54895;40.928;14.480;2023-04-29T11:16:07;101381.72;;;27.33
63689;BMP280;54895;40.928;14.480;2023-04-29T11:18:35;101380.81;;;27.92
63689;BMP280;54895;40.928;14.480;2023-04-29T11:23:34;101383.63;;;27.94
63689;BMP280;54895;40.928;14.480;2023-04-29T11:26:02;101388.25;;;28.07
63689;BMP280;54895;40.928;14.480;2023-04-29T11:28:29;101378.69;;;28.43
63689;BMP280;54895;40.928;14.480;2023-04-29T11:30:56;101373.94;;;29.00
63689;BMP280;54895;40.928;14.480;2023-04-29T11:33:24;101362.56;;;28.88
63689;BMP280;54895;40.928;14.480;2023-04-29T11:35:54;101368.69;;;28.32
63689;BMP280;54895;40.928;14.480;2023-04-29T11:38:25;101369.94;;;28.29
63689;BMP280;54895;40.928;14.480;2023-04-29T11:40:54;101359.84;;;27.02
63689;BMP280;54895;40.928;14.480;2023-04-29T11:43:22;101375.09;;;27.86
63689;BMP280;54895;40.928;14.480;2023-04-29T11:45:49;101381.13;;;28.18
63689;BMP280;54895;40.928;14.480;2023-04-29T11:48:20;101357.41;;;28.42
63689;BMP280;54895;40.928;14.480;2023-04-29T11:50:49;101371.50;;;27.34
63689;BMP280;54895;40.928;14.480;2023-04-29T11:53:19;101381.34;;;27.56
63689;BMP280;54895;40.928;14.480;2023-04-29T11:55:45;101376.16;;;27.79
63689;BMP280;54895;40.928;14.480;2023-04-29T11:58:15;101372.41;;;27.23
63689;BMP280;54895;40.928;14.480;2023-04-29T12:00:41;101365.88;;;27.95
63689;BMP280;54895;40.928;14.480;2023-04-29T12:03:14;101368.19;;;28.55
63689;BMP280;54895;40.928;14.480;2023-04-29T12:05:49;101365.88;;;28.67
63689;BMP280;54895;40.928;14.480;2023-04-29T12:08:23;101359.75;;;27.46
63689;BMP280;54895;40.928;14.480;2023-04-29T12:10:51;101361.19;;;28.15
63689;BMP280;54895;40.928;14.480;2023-04-29T12:13:18;101331.78;;;28.33
63689;BMP280;54895;40.928;14.480;2023-04-29T12:15:47;101308.97;;;28.46
63689;BMP280;54895;40.928;14.480;2023-04-29T12:18:13;101349.44;;;28.30
63689;BMP280;54895;40.928;14.480;2023-04-29T12:20:40;101355.53;;;28.29
63689;BMP280;54895;40.928;14.480;2023-04-29T12:23:13;101346.69;;;28.48
63689;BMP280;54895;40.928;14.480;2023-04-29T12:25:40;101349.78;;;29.55
63689;BMP280;54895;40.928;14.480;2023-04-29T12:28:14;101354.91;;;30.79
63689;BMP280;54895;40.928;14.480;2023-04-29T12:30:45;101347.00;;;30.42
63689;BMP280;54895;40.928;14.480;2023-04-29T12:33:35;101345.13;;;30.25
63689;BMP280;54895;40.928;14.480;2023-04-29T12:36:03;101329.72;;;29.29
63689;BMP280;54895;40.928;14.480;2023-04-29T12:38:30;101330.25;;;29.45
63689;BMP280;54895;40.928;14.480;2023-04-29T12:41:00;101335.09;;;29.05
63689;BMP280;54895;40.928;14.480;2023-04-29T12:43:31;101329.31;;;28.04
63689;BMP280;54895;40.928;14.480;2023-04-29T12:46:05;101331.41;;;28.06
63689;BMP280;54895;40.928;14.480;2023-04-29T12:48:37;101320.53;;;27.40
63689;BMP280;54895;40.928;14.480;2023-04-29T12:51:09;101310.06;;;26.42
63689;BMP280;54895;40.928;14.480;2023-04-29T12:53:37;101316.44;;;26.33
63689;BMP280;54895;40.928;14.480;2023-04-29T12:56:04;101292.47;;;25.60
63689;BMP280;54895;40.928;14.480;2023-04-29T12:58:31;101301.50;;;25.92
63689;BMP280;54895;40.928;14.480;2023-04-29T13:00:59;101304.72;;;26.02
63689;BMP280;54895;40.928;14.480;2023-04-29T13:03:25;101293.75;;;25.86
63689;BMP280;54895;40.928;14.480;2023-04-29T13:05:52;101304.38;;;25.80
63689;BMP280;54895;40.928;14.480;2023-04-29T13:08:19;101301.75;;;25.82
63689;BMP280;54895;40.928;14.480;2023-04-29T13:10:53;101291.91;;;25.35
63689;BMP280;54895;40.928;14.480;2023-04-29T13:13:22;101288.53;;;25.09
63689;BMP280;54895;40.928;14.480;2023-04-29T13:15:56;101295.41;;;25.10
63689;BMP280;54895;40.928;14.480;2023-04-29T13:18:26;101280.19;;;25.06
63689;BMP280;54895;40.928;14.480;2023-04-29T13:20:52;101283.19;;;24.60
63689;BMP280;54895;40.928;14.480;2023-04-29T13:23:22;101275.91;;;24.51
63689;BMP280;54895;40.928;14.480;2023-04-29T13:25:51;101262.38;;;24.78
63689;BMP280;54895;40.928;14.480;2023-04-29T13:28:18;101267.22;;;24.93
63689;BMP280;54895;40.928;14.480;2023-04-29T13:30:44;101279.19;;;25.26
63689;BMP280;54895;40.928;14.480;2023-04-29T13:33:10;101267.47;;;25.10
63689;BMP280;54895;40.928;14.480;2023-04-29T13:35:38;101232.88;;;24.86
63689;BMP280;54895;40.928;14.480;2023-04-29T13:38:07;101254.53;;;24.97
63689;BMP280;54895;40.928;14.480;2023-04-29T13:40:33;101238.94;;;24.98
63689;BMP280;54895;40.928;14.480;2023-04-29T13:43:00;101240.84;;;24.32
63689;BMP280;54895;40.928;14.480;2023-04-29T13:45:27;101239.22;;;24.02
63689;BMP280;54895;40.928;14.480;2023-04-29T13:47:54;101259.34;;;23.85
63689;BMP280;54895;40.928;14.480;2023-04-29T13:50:20;101234.22;;;23.62
63689;BMP280;54895;40.928;14.480;2023-04-29T13:52:46;101229.19;;;23.34
63689;BMP280;54895;40.928;14.480;2023-04-29T13:55:13;101239.94;;;23.43
63689;BMP280;54895;40.928;14.480;2023-04-29T13:57:39;101238.91;;;23.25
63689;BMP280;54895;40.928;14.480;2023-04-29T14:00:06;101260.81;;;23.06
63689;BMP280;54895;40.928;14.480;2023-04-29T14:02:42;101248.22;;;22.55
63689;BMP280;54895;40.928;14.480;2023-04-29T14:05:27;101255.25;;;21.96
63689;BMP280;54895;40.928;14.480;2023-04-29T14:07:56;101244.53;;;22.19
63689;BMP280;54895;40.928;14.480;2023-04-29T14:11:00;101231.59;;;22.28
63689;BMP280;54895;40.928;14.480;2023-04-29T14:14:07;101225.81;;;22.02
63689;BMP280;54895;40.928;14.480;2023-04-29T14:17:01;101209.66;;;22.25
63689;BMP280;54895;40.928;14.480;2023-04-29T14:19:53;101206.09;;;22.11
63689;BMP280;54895;40.928;14.480;2023-04-29T14:22:55;101178.69;;;22.07
63689;BMP280;54895;40.928;14.480;2023-04-29T14:25:55;101169.16;;;22.06
63689;BMP280;54895;40.928;14.480;2023-04-29T14:29:12;101169.25;;;21.54
63689;BMP280;54895;40.928;14.480;2023-04-29T14:31:42;101173.88;;;21.84
63689;BMP280;54895;40.928;14.480;2023-04-29T14:34:22;101158.59;;;21.89
63689;BMP280;54895;40.928;14.480;2023-04-29T14:36:52;101169.41;;;22.10
63689;BMP280;54895;40.928;14.480;2023-04-29T14:39:26;101202.03;;;22.00
63689;BMP280;54895;40.928;14.480;2023-04-29T14:42:06;101202.97;;;22.05
63689;BMP280;54895;40.928;14.480;2023-04-29T14:45:16;101192.72;;;22.35
63689;BMP280;54895;40.928;14.480;2023-04-29T14:51:14;101202.50;;;22.40